Accueil
METAR-TAF:

METAR-TAF

Aéroports :

Tri-County Airport

Ahoskie, Caroline du Nord, États-Unis

latitude: 36-17-51N, longitude: 077-10-15W, altitude: 21 m

Observation

Le bulletin a été fait il y a 24 minutes, à 22:15 UTC
Vent 5 kt de sud-ouest
Température 9°C
Humidité 40%
Pression 1014 hPa
Visibilité: 16.1 km
Nuages fragmentés à une hauteur de 7500 ft
Ciel couvert à une hauteur de 9000 ft

METAR: KASJ 282215Z AUTO 23005KT 10SM BKN075 OVC090 09/M04 A2994 RMK AO2 T00941041

Heure: 17:39 (22:39 UTC)


TAF: absent

Observations et prévisions météorologiques de plus de 4000 aéroports (messages METAR et TAF).

Les stations disponibles sont représentées par des disques jaunes et rouges sur la carte.

Passer la souris dessus pour voir le nom de la station.

Cliquer dessus pour voir les observations et prévisions météorologiques.

Pour changer de carte: cliquez sur les boutons verts avec une croix noire pour zoomer, sur le bouton vert avec un tiret pour effectuer un zoom arrière, ou sur les flèches vertes pour les cartes adjacentes.


METAR-TAF: